createdAt,value
2023-02-09T00:00:44.665Z,89421.00
2023-02-09T00:01:44.419Z,89419.00
2023-02-09T00:02:44.418Z,89425.00
2023-02-09T00:03:44.545Z,89417.00
2023-02-09T00:04:44.518Z,89431.00
2023-02-09T00:05:44.561Z,89429.00
2023-02-09T00:06:44.627Z,89417.00
2023-02-09T00:07:44.665Z,89421.00
2023-02-09T00:08:44.709Z,89419.00
2023-02-09T00:09:44.764Z,89425.00
2023-02-09T00:10:45.032Z,89417.00
2023-02-09T00:11:44.852Z,89423.00
2023-02-09T00:12:44.892Z,89441.00
2023-02-09T00:42:46.332Z,89429.00
2023-02-09T00:43:46.379Z,89417.00
2023-02-09T00:44:46.423Z,89421.00
2023-02-09T00:45:46.512Z,89413.00
2023-02-09T00:46:46.525Z,89423.00
2023-02-09T00:47:46.571Z,89419.00
2023-02-09T00:48:46.629Z,89423.00
2023-02-09T00:49:46.669Z,89431.00
2023-02-09T00:50:46.964Z,89415.00
2023-02-09T00:51:46.849Z,89419.00
2023-02-09T00:52:46.825Z,89419.00
2023-02-09T00:53:46.875Z,89427.00
2023-02-09T00:54:46.922Z,89421.00
2023-02-09T00:55:46.990Z,89419.00
2023-02-09T00:56:47.046Z,89431.00
2023-02-09T00:58:47.124Z,89417.00
2023-02-09T01:06:47.518Z,89431.00
2023-02-09T01:14:47.921Z,89433.00
2023-02-09T01:20:48.224Z,89425.00
2023-02-09T03:04:54.065Z,89368.00
2023-02-09T03:05:54.018Z,89368.00
2023-02-09T03:06:54.096Z,89374.00
2023-02-09T03:07:54.137Z,89368.00
2023-02-09T03:08:54.210Z,89358.00
2023-02-09T03:09:54.257Z,89364.00
2023-02-09T03:10:54.314Z,89372.00
2023-02-09T03:11:54.373Z,89364.00
2023-02-09T03:12:54.450Z,89372.00
2023-02-09T03:13:54.504Z,89370.00
2023-02-09T03:14:54.554Z,89376.00
2023-02-09T03:15:54.632Z,89356.00
2023-02-09T03:16:54.671Z,89358.00
2023-02-09T03:17:54.727Z,89362.00
2023-02-09T03:18:54.798Z,89358.00
2023-02-09T03:19:54.858Z,89352.00
2023-02-09T03:20:54.956Z,89376.00
2023-02-09T03:21:55.002Z,89360.00
2023-02-09T03:22:55.056Z,89356.00
2023-02-09T03:23:55.126Z,89362.00
2023-02-09T03:24:55.194Z,89368.00
2023-02-09T03:25:55.255Z,89358.00
2023-02-09T03:26:55.317Z,89350.00
2023-02-09T03:27:55.410Z,89366.00
2023-02-09T03:28:55.438Z,89360.00
2023-02-09T03:29:55.498Z,89364.00
2023-02-09T03:30:55.645Z,89350.00
2023-02-09T03:31:55.747Z,89352.00
2023-02-09T03:32:55.719Z,89352.00
2023-02-09T03:33:55.743Z,89362.00
2023-02-09T03:34:55.805Z,89362.00
2023-02-09T03:35:55.857Z,89350.00
2023-02-09T03:36:55.919Z,89366.00
2023-02-09T03:37:56.019Z,89362.00
2023-02-09T03:38:56.034Z,89358.00
2023-02-09T03:39:56.099Z,89358.00
2023-02-09T03:40:56.163Z,89374.00
2023-02-09T03:41:56.232Z,89366.00
2023-02-09T03:42:56.299Z,89360.00
2023-02-09T03:43:56.376Z,89352.00
2023-02-09T03:44:56.439Z,89350.00
2023-02-09T03:45:56.489Z,89354.00
2023-02-09T03:46:56.553Z,89350.00
2023-02-09T03:47:56.629Z,89356.00
2023-02-09T03:48:56.690Z,89368.00
2023-02-09T03:49:56.754Z,89368.00
2023-02-09T03:50:56.822Z,89354.00
2023-02-09T03:51:56.903Z,89362.00
2023-02-09T03:52:56.973Z,89356.00
2023-02-09T03:53:57.036Z,89356.00
2023-02-09T03:54:57.101Z,89348.00
2023-02-09T03:55:57.170Z,89370.00
2023-02-09T03:56:57.233Z,89356.00
2023-02-09T03:57:57.314Z,89362.00
2023-02-09T03:58:57.377Z,89360.00
2023-02-09T03:59:57.457Z,89368.00
2023-02-09T04:00:57.558Z,89368.00
2023-02-09T04:01:57.569Z,89356.00
2023-02-09T04:02:57.630Z,89368.00
2023-02-09T04:03:57.699Z,89362.00
2023-02-09T04:04:57.770Z,89370.00
2023-02-09T04:05:57.838Z,89354.00
2023-02-09T04:06:57.908Z,89360.00
2023-02-09T04:07:57.974Z,89352.00
2023-02-09T04:08:58.062Z,89354.00
2023-02-09T04:09:58.153Z,89348.00
2023-02-09T04:10:58.197Z,89358.00
2023-02-09T04:11:58.252Z,89356.00
2023-02-09T04:12:58.322Z,89362.00
2023-02-09T04:13:58.380Z,89362.00
2023-02-09T04:14:58.460Z,89346.00
2023-02-09T04:15:58.561Z,89350.00
2023-02-09T04:16:58.574Z,89352.00
2023-02-09T04:17:58.639Z,89354.00
2023-02-09T04:18:58.716Z,89354.00
2023-02-09T04:19:58.803Z,89344.00
2023-02-09T04:20:58.850Z,89346.00
2023-02-09T04:21:58.927Z,89339.00
2023-02-09T04:22:58.994Z,89346.00
2023-02-09T04:23:59.048Z,89342.00
2023-02-09T04:24:59.125Z,89344.00
2023-02-09T04:25:59.177Z,89333.00
2023-02-09T04:26:59.255Z,89335.00
2023-02-09T04:27:59.340Z,89339.00
2023-02-09T04:28:59.386Z,89348.00
2023-02-09T04:29:59.445Z,89346.00
2023-02-09T04:30:59.559Z,89346.00
2023-02-09T04:31:59.618Z,89335.00
2023-02-09T04:32:59.631Z,89335.00
2023-02-09T04:33:59.694Z,89354.00
2023-02-09T04:34:59.768Z,89354.00
2023-02-09T04:35:59.842Z,89331.00
2023-02-09T04:36:59.907Z,89352.00
2023-02-09T04:37:59.965Z,89333.00
2023-02-09T04:39:00.047Z,89350.00
2023-02-09T04:40:00.131Z,89342.00
2023-02-09T04:41:00.189Z,89342.00
2023-02-09T04:42:00.242Z,89356.00
2023-02-09T04:43:00.309Z,89344.00
2023-02-09T04:44:00.363Z,89348.00
2023-02-09T04:45:01.185Z,89348.00
2023-02-09T04:46:00.655Z,89354.00
2023-02-09T04:47:00.556Z,89350.00
2023-02-09T04:48:00.607Z,89356.00
2023-02-09T04:49:00.666Z,89356.00
2023-02-09T04:50:00.741Z,89362.00
2023-02-09T04:51:00.803Z,89368.00
2023-02-09T04:52:00.853Z,89366.00
2023-02-09T04:53:00.927Z,89372.00
2023-02-09T04:54:00.992Z,89362.00
2023-02-09T04:55:01.057Z,89374.00
2023-02-09T04:56:01.126Z,89368.00
2023-02-09T04:57:01.185Z,89346.00
2023-02-09T04:58:01.262Z,89372.00
2023-02-09T04:59:01.322Z,89370.00
2023-02-09T05:00:01.381Z,89380.00
2023-02-09T05:01:01.492Z,89372.00
2023-02-09T05:02:01.500Z,89372.00
2023-02-09T05:03:01.569Z,89380.00
2023-02-09T05:04:01.627Z,89376.00
2023-02-09T05:05:01.690Z,89372.00
2023-02-09T05:06:01.753Z,89386.00
2023-02-09T05:07:01.821Z,89372.00
2023-02-09T05:08:01.884Z,89384.00
2023-02-09T05:09:01.958Z,89376.00
2023-02-09T05:10:02.007Z,89386.00
2023-02-09T05:11:02.095Z,89382.00
2023-02-09T05:12:02.128Z,89376.00
2023-02-09T05:39:03.905Z,89372.00
2023-02-09T05:40:03.972Z,89372.00
2023-02-09T05:41:04.023Z,89376.00
2023-02-09T05:42:04.084Z,89378.00
2023-02-09T05:43:04.159Z,89380.00
2023-02-09T05:44:04.224Z,89378.00
2023-02-09T05:45:04.266Z,89378.00
2023-02-09T05:46:06.992Z,89380.00
2023-02-09T05:47:04.413Z,89366.00
2023-02-09T05:48:04.474Z,89370.00
2023-02-09T05:49:04.543Z,89374.00
2023-02-09T05:50:04.619Z,89374.00
2023-02-09T05:51:04.684Z,89368.00
2023-02-09T05:52:04.774Z,89364.00
2023-02-09T05:53:04.826Z,89364.00
2023-02-09T05:54:04.882Z,89364.00
2023-02-09T05:55:04.954Z,89364.00
2023-02-09T05:56:05.025Z,89374.00
2023-02-09T05:57:05.096Z,89368.00
2023-02-09T05:58:05.165Z,89380.00
2023-02-09T05:59:05.264Z,89374.00
2023-02-09T06:00:05.302Z,89376.00
2023-02-09T06:01:05.382Z,89372.00
2023-02-09T06:02:05.469Z,89378.00
2023-02-09T06:03:05.579Z,89374.00
2023-02-09T06:04:05.650Z,89380.00
2023-02-09T06:05:05.655Z,89384.00
2023-02-09T06:06:05.698Z,89382.00
2023-02-09T06:07:05.788Z,89382.00
2023-02-09T06:08:05.827Z,89386.00
2023-02-09T06:09:05.902Z,89386.00
2023-02-09T06:10:05.949Z,89388.00
2023-02-09T06:11:06.025Z,89392.00
2023-02-09T06:12:06.073Z,89390.00
2023-02-09T06:13:06.136Z,89390.00
2023-02-09T06:14:06.204Z,89394.00
2023-02-09T06:15:06.280Z,89401.00
2023-02-09T06:16:06.429Z,89397.00
2023-02-09T06:17:06.425Z,89392.00
2023-02-09T06:18:06.477Z,89397.00
2023-02-09T06:19:06.549Z,89397.00
2023-02-09T06:20:06.615Z,89399.00
2023-02-09T06:21:06.694Z,89380.00
2023-02-09T06:22:06.802Z,89392.00
2023-02-09T06:23:06.838Z,89395.00
2023-02-09T06:24:06.897Z,89394.00
2023-02-09T06:25:06.983Z,89397.00
2023-02-09T06:26:07.160Z,89399.00
2023-02-09T06:27:07.121Z,89394.00
2023-02-09T06:28:07.188Z,89395.00
2023-02-09T06:29:07.314Z,89405.00
2023-02-09T06:30:07.317Z,89407.00
2023-02-09T06:31:07.495Z,89401.00
2023-02-09T06:32:07.594Z,89409.00
2023-02-09T06:33:07.505Z,89409.00
2023-02-09T06:34:07.549Z,89405.00
2023-02-09T06:35:07.660Z,89411.00
2023-02-09T06:36:07.702Z,89409.00
2023-02-09T06:37:07.746Z,89407.00
2023-02-09T06:38:07.808Z,89423.00
2023-02-09T06:39:07.869Z,89417.00
2023-02-09T06:40:07.916Z,89413.00
2023-02-09T06:41:07.968Z,89421.00
2023-02-09T06:42:08.036Z,89437.00
2023-02-09T06:43:08.070Z,89417.00
2023-02-09T06:44:08.108Z,89423.00
2023-02-09T06:45:08.164Z,89417.00
2023-02-09T06:46:08.296Z,89421.00
2023-02-09T06:47:08.323Z,89421.00
2023-02-09T06:48:08.314Z,89419.00
2023-02-09T06:49:08.370Z,89423.00
2023-02-09T06:50:08.393Z,89421.00
2023-02-09T06:51:08.431Z,89409.00
2023-02-09T06:52:08.561Z,89403.00
2023-02-09T06:53:08.520Z,89421.00
2023-02-09T06:54:08.553Z,89419.00
2023-02-09T06:55:08.602Z,89419.00
2023-02-09T06:56:08.627Z,89411.00
2023-02-09T06:57:08.720Z,89411.00
2023-02-09T06:58:08.694Z,89409.00
2023-02-09T06:59:08.717Z,89421.00
2023-02-09T07:00:08.740Z,89411.00
2023-02-09T07:01:08.987Z,89415.00
2023-02-09T07:02:08.811Z,89417.00
2023-02-09T07:03:08.976Z,89415.00
2023-02-09T07:04:08.876Z,89419.00
2023-02-09T07:05:08.969Z,89421.00
2023-02-09T07:06:08.921Z,89423.00
2023-02-09T07:07:08.969Z,89417.00
2023-02-09T07:08:08.969Z,89427.00
2023-02-09T07:09:09.027Z,89427.00
2023-02-09T07:10:09.023Z,89415.00
2023-02-09T07:11:09.047Z,89421.00
2023-02-09T07:12:09.060Z,89415.00
2023-02-09T07:13:09.080Z,89427.00
2023-02-09T07:14:09.102Z,89421.00
2023-02-09T07:15:09.119Z,89417.00
2023-02-09T07:16:09.191Z,89413.00
2023-02-09T07:17:09.172Z,89403.00
2023-02-09T07:18:09.223Z,89399.00
2023-02-09T07:19:09.234Z,89397.00
2023-02-09T07:20:09.214Z,89419.00
2023-02-09T07:21:09.233Z,89419.00
2023-02-09T07:22:09.246Z,89413.00
2023-02-09T07:23:09.265Z,89405.00
2023-02-09T07:24:09.304Z,89411.00
2023-02-09T07:25:09.288Z,89407.00
2023-02-09T07:26:09.304Z,89413.00
2023-02-09T07:27:09.318Z,89407.00
2023-02-09T07:28:09.360Z,89407.00
2023-02-09T07:29:10.958Z,89399.00
2023-02-09T07:30:09.569Z,89401.00
2023-02-09T07:31:09.606Z,89409.00
2023-02-09T07:32:09.616Z,89401.00
2023-02-09T07:33:09.572Z,89395.00
2023-02-09T07:34:09.587Z,89407.00
2023-02-09T07:35:09.609Z,89409.00
2023-02-09T07:36:09.641Z,89407.00
2023-02-09T07:37:09.640Z,89399.00
2023-02-09T07:38:09.658Z,89403.00
2023-02-09T07:39:09.694Z,89407.00
2023-02-09T07:40:09.676Z,89415.00
2023-02-09T07:41:09.684Z,89411.00
2023-02-09T07:42:09.702Z,89407.00
2023-02-09T07:43:09.740Z,89413.00
2023-02-09T07:44:09.737Z,89409.00
2023-02-09T07:45:10.214Z,89411.00
2023-02-09T07:46:09.817Z,89401.00
2023-02-09T07:47:09.776Z,89401.00
2023-02-09T07:48:09.793Z,89401.00
2023-02-09T07:49:09.809Z,89405.00
2023-02-09T07:52:09.843Z,89403.00
2023-02-09T07:55:09.881Z,89397.00
2023-02-09T10:05:10.999Z,89382.00
2023-02-09T10:14:11.017Z,89386.00
2023-02-09T10:15:10.998Z,89392.00
2023-02-09T10:16:11.025Z,89388.00
2023-02-09T10:17:11.055Z,89384.00
2023-02-09T10:18:10.992Z,89384.00
2023-02-09T10:19:10.988Z,89388.00
2023-02-09T10:20:10.988Z,89386.00
2023-02-09T10:21:10.989Z,89384.00
2023-02-09T10:22:10.987Z,89390.00
2023-02-09T10:23:10.997Z,89390.00
2023-02-09T10:24:10.962Z,89388.00
2023-02-09T10:25:10.957Z,89386.00
2023-02-09T10:26:10.960Z,89388.00
2023-02-09T10:27:10.954Z,89382.00
2023-02-09T10:28:10.963Z,89384.00
2023-02-09T10:29:10.995Z,89380.00
2023-02-09T10:30:10.928Z,89380.00
2023-02-09T10:31:10.970Z,89386.00
2023-02-09T10:32:10.904Z,89376.00
2023-02-09T10:33:10.906Z,89378.00
2023-02-09T10:34:10.905Z,89380.00
2023-02-09T10:35:10.880Z,89374.00
2023-02-09T10:36:10.881Z,89370.00
2023-02-09T10:37:10.876Z,89372.00
2023-02-09T10:38:10.873Z,89370.00
2023-02-09T10:39:10.874Z,89370.00
2023-02-09T10:41:10.875Z,89372.00
2023-02-09T10:42:10.887Z,89374.00
2023-02-09T10:43:10.864Z,89372.00
2023-02-09T10:44:10.850Z,89366.00
2023-02-09T10:45:10.963Z,89368.00
2023-02-09T10:46:10.896Z,89366.00
2023-02-09T10:47:10.830Z,89366.00
2023-02-09T10:48:10.869Z,89364.00
2023-02-09T10:49:10.804Z,89366.00
2023-02-09T10:50:10.807Z,89358.00
2023-02-09T10:51:10.797Z,89362.00
2023-02-09T10:52:10.797Z,89360.00
2023-02-09T10:53:10.790Z,89360.00
2023-02-09T10:54:10.799Z,89354.00
2023-02-09T10:55:10.789Z,89352.00
2023-02-09T10:56:10.782Z,89350.00
2023-02-09T10:57:10.778Z,89350.00
2023-02-09T10:58:10.785Z,89348.00
2023-02-09T10:59:10.774Z,89344.00
2023-02-09T11:00:10.778Z,89346.00
2023-02-09T11:01:10.823Z,89346.00
2023-02-09T11:02:11.960Z,89346.00
2023-02-09T11:03:10.754Z,89344.00
2023-02-09T11:04:10.811Z,89344.00
2023-02-09T11:05:10.719Z,89346.00
2023-02-09T11:06:10.721Z,89346.00
2023-02-09T11:07:10.711Z,89344.00
2023-02-09T11:08:10.696Z,89339.00
2023-02-09T11:09:10.808Z,89344.00
2023-02-09T11:10:12.429Z,89344.00
2023-02-09T11:11:10.675Z,89340.00
2023-02-09T11:12:10.660Z,89337.00
2023-02-09T11:13:10.661Z,89340.00
2023-02-09T11:14:10.665Z,89335.00
2023-02-09T11:15:10.713Z,89339.00
2023-02-09T11:16:10.717Z,89335.00
2023-02-09T11:17:10.651Z,89331.00
2023-02-09T11:18:10.640Z,89331.00
2023-02-09T11:19:11.424Z,89331.00
2023-02-09T11:20:10.660Z,89329.00
2023-02-09T11:21:10.640Z,89325.00
2023-02-09T11:22:10.644Z,89325.00
2023-02-09T11:23:10.631Z,89321.00
2023-02-09T11:24:10.651Z,89319.00
2023-02-09T11:25:10.616Z,89317.00
2023-02-09T11:26:10.647Z,89317.00
2023-02-09T11:27:10.612Z,89311.00
2023-02-09T11:28:10.675Z,89313.00
2023-02-09T11:29:10.588Z,89319.00
2023-02-09T11:30:10.577Z,89311.00
2023-02-09T11:31:10.722Z,89313.00
2023-02-09T11:32:10.558Z,89311.00
2023-02-09T11:33:10.568Z,89311.00
2023-02-09T11:34:10.558Z,89309.00
2023-02-09T11:35:10.574Z,89307.00
2023-02-09T11:36:10.561Z,89309.00
2023-02-09T11:37:10.606Z,89305.00
2023-02-09T11:38:10.556Z,89309.00
2023-02-09T11:39:10.545Z,89303.00
2023-02-09T11:40:10.569Z,89305.00
2023-02-09T11:41:10.812Z,89299.00
2023-02-09T11:42:10.539Z,89303.00
2023-02-09T11:43:10.551Z,89299.00
2023-02-09T11:44:12.340Z,89301.00
2023-02-09T11:45:10.630Z,89301.00
2023-02-09T11:46:10.530Z,89297.00
2023-02-09T11:47:10.515Z,89295.00
2023-02-09T11:48:10.515Z,89299.00
2023-02-09T11:49:10.513Z,89297.00
2023-02-09T11:50:10.505Z,89295.00
2023-02-09T11:51:10.486Z,89291.00
2023-02-09T11:52:10.494Z,89286.00
2023-02-09T11:53:10.520Z,89286.00
2023-02-09T11:54:10.457Z,89289.00
2023-02-09T11:55:10.460Z,89288.00
2023-02-09T11:56:10.443Z,89284.00
2023-02-09T11:57:10.437Z,89280.00
2023-02-09T11:58:10.424Z,89284.00
2023-02-09T11:59:10.441Z,89276.00
2023-02-09T12:00:10.405Z,89274.00
2023-02-09T12:01:15.856Z,89268.00
2023-02-09T12:02:11.410Z,89276.00
2023-02-09T12:03:10.399Z,89274.00
2023-02-09T12:04:10.352Z,89270.00
2023-02-09T12:05:10.337Z,89268.00
2023-02-09T12:06:10.381Z,89264.00
2023-02-09T12:07:10.333Z,89266.00
2023-02-09T12:08:10.309Z,89260.00
2023-02-09T12:09:10.316Z,89262.00
2023-02-09T12:10:10.325Z,89258.00
2023-02-09T12:11:10.366Z,89260.00
2023-02-09T12:12:10.380Z,89256.00
2023-02-09T12:13:10.289Z,89256.00
2023-02-09T12:14:10.266Z,89252.00
2023-02-09T12:15:10.258Z,89250.00
2023-02-09T12:16:10.348Z,89248.00
2023-02-09T12:17:10.271Z,89250.00
2023-02-09T12:18:10.263Z,89246.00
2023-02-09T12:19:10.239Z,89246.00
2023-02-09T12:20:10.231Z,89246.00
2023-02-09T12:21:10.229Z,89242.00
2023-02-09T12:22:10.227Z,89242.00
2023-02-09T12:23:10.231Z,89238.00
2023-02-09T12:24:10.265Z,89238.00
2023-02-09T12:25:10.222Z,89240.00
2023-02-09T12:26:10.226Z,89227.00
2023-02-09T12:27:10.240Z,89238.00
2023-02-09T12:28:10.427Z,89229.00
2023-02-09T12:29:10.210Z,89231.00
2023-02-09T12:30:10.189Z,89242.00
2023-02-09T12:31:10.288Z,89242.00
2023-02-09T12:32:10.255Z,89242.00
2023-02-09T12:33:10.208Z,89242.00
2023-02-09T12:34:10.195Z,89225.00
2023-02-09T12:35:10.190Z,89224.00
2023-02-09T12:36:10.228Z,89227.00
2023-02-09T12:37:10.199Z,89225.00
2023-02-09T12:38:10.238Z,89224.00
2023-02-09T12:39:10.184Z,89225.00
2023-02-09T12:40:10.209Z,89224.00
2023-02-09T12:41:10.173Z,89224.00
2023-02-09T12:42:10.206Z,89220.00
2023-02-09T12:43:10.173Z,89216.00
2023-02-09T12:44:10.172Z,89212.00
2023-02-09T12:45:10.162Z,89210.00
2023-02-09T12:46:10.181Z,89208.00
2023-02-09T12:47:10.161Z,89214.00
2023-02-09T12:48:10.176Z,89212.00
2023-02-09T12:49:10.166Z,89212.00
2023-02-09T12:50:10.162Z,89206.00
2023-02-09T12:51:10.155Z,89202.00
2023-02-09T12:52:10.151Z,89206.00
2023-02-09T12:53:10.154Z,89206.00
2023-02-09T12:54:10.139Z,89208.00
2023-02-09T12:55:10.155Z,89204.00
2023-02-09T12:56:10.118Z,89200.00
2023-02-09T12:57:10.127Z,89204.00
2023-02-09T12:58:10.126Z,89202.00
2023-02-09T12:59:10.110Z,89202.00
2023-02-09T13:00:10.111Z,89204.00
2023-02-09T13:01:10.137Z,89206.00
2023-02-09T13:02:10.116Z,89202.00
2023-02-09T13:03:10.141Z,89202.00
2023-02-09T13:04:10.246Z,89206.00
2023-02-09T13:05:10.130Z,89208.00
2023-02-09T13:06:10.108Z,89206.00
2023-02-09T13:07:10.098Z,89208.00
2023-02-09T13:08:10.089Z,89202.00
2023-02-09T13:09:10.102Z,89202.00
2023-02-09T13:10:10.080Z,89204.00
2023-02-09T13:11:10.090Z,89204.00
2023-02-09T13:12:10.091Z,89204.00
2023-02-09T13:13:10.086Z,89206.00
2023-02-09T13:14:10.083Z,89208.00
2023-02-09T13:15:10.075Z,89206.00
2023-02-09T13:16:10.242Z,89208.00
2023-02-09T13:17:10.093Z,89208.00
2023-02-09T13:18:10.083Z,89210.00
2023-02-09T13:19:10.094Z,89204.00
2023-02-09T13:20:10.088Z,89204.00
2023-02-09T13:21:10.103Z,89204.00
2023-02-09T13:22:10.111Z,89208.00
2023-02-09T13:23:10.103Z,89208.00
2023-02-09T13:24:10.123Z,89210.00
2023-02-09T13:25:10.129Z,89208.00
2023-02-09T13:26:10.136Z,89208.00
2023-02-09T13:27:10.134Z,89206.00
2023-02-09T13:28:10.196Z,89208.00
2023-02-09T13:29:19.899Z,89212.00
2023-02-09T13:31:10.143Z,89210.00
2023-02-09T13:32:10.136Z,89212.00
2023-02-09T13:33:10.125Z,89210.00
2023-02-09T13:34:10.123Z,89208.00
2023-02-09T13:35:10.129Z,89212.00
2023-02-09T13:36:22.862Z,89212.00
2023-02-09T13:38:10.110Z,89210.00
2023-02-09T13:39:10.109Z,89210.00
2023-02-09T13:40:10.119Z,89212.00
2023-02-09T13:41:10.101Z,89212.00
2023-02-09T13:42:10.102Z,89208.00
2023-02-09T13:57:10.006Z,89202.00
2023-02-09T13:58:10.059Z,89202.00
2023-02-09T13:59:10.946Z,89202.00
2023-02-09T14:00:09.984Z,89204.00
2023-02-09T14:01:10.001Z,89202.00
2023-02-09T14:02:09.956Z,89200.00
2023-02-09T14:03:09.955Z,89200.00
2023-02-09T14:04:09.955Z,89200.00
2023-02-09T14:05:09.917Z,89202.00
2023-02-09T14:06:09.919Z,89204.00
2023-02-09T14:07:09.898Z,89202.00
2023-02-09T14:08:09.903Z,89202.00
2023-02-09T14:09:09.910Z,89206.00
2023-02-09T14:10:09.867Z,89206.00
2023-02-09T14:11:09.840Z,89206.00
2023-02-09T14:12:09.872Z,89206.00
2023-02-09T14:13:09.836Z,89206.00
2023-02-09T14:14:09.803Z,89206.00
2023-02-09T14:15:09.799Z,89208.00
2023-02-09T14:16:09.795Z,89210.00
2023-02-09T14:17:22.877Z,89208.00
2023-02-09T14:18:10.771Z,89206.00
2023-02-09T14:19:09.785Z,89208.00
2023-02-09T14:20:09.744Z,89208.00
2023-02-09T14:21:09.746Z,89210.00
2023-02-09T14:22:09.730Z,89212.00
2023-02-09T14:23:09.744Z,89208.00
2023-02-09T14:24:12.336Z,89210.00
2023-02-09T14:25:09.737Z,89210.00
2023-02-09T14:26:09.714Z,89210.00
2023-02-09T14:27:09.717Z,89214.00
2023-02-09T14:28:09.750Z,89216.00
2023-02-09T14:29:09.729Z,89214.00
2023-02-09T14:30:09.717Z,89216.00
2023-02-09T14:31:09.774Z,89216.00
2023-02-09T14:32:09.695Z,89224.00
2023-02-09T14:33:09.696Z,89224.00
2023-02-09T14:34:12.249Z,89227.00
2023-02-09T14:35:09.720Z,89225.00
2023-02-09T14:36:09.707Z,89224.00
2023-02-09T14:37:09.695Z,89229.00
2023-02-09T14:38:09.704Z,89225.00
2023-02-09T14:39:09.719Z,89229.00
2023-02-09T14:40:09.677Z,89229.00
2023-02-09T14:41:09.674Z,89225.00
2023-02-09T14:42:09.681Z,89227.00
2023-02-09T14:43:09.726Z,89229.00
2023-02-09T14:44:09.678Z,89229.00
2023-02-09T14:45:09.677Z,89231.00
2023-02-09T14:46:09.665Z,89231.00
2023-02-09T14:47:09.652Z,89229.00
2023-02-09T14:48:09.650Z,89229.00
2023-02-09T14:49:09.652Z,89238.00
2023-02-09T14:50:09.660Z,89229.00
2023-02-09T14:51:09.636Z,89229.00
2023-02-09T14:52:10.680Z,89231.00
2023-02-09T14:53:09.631Z,89229.00
2023-02-09T14:54:09.608Z,89238.00
2023-02-09T14:55:09.602Z,89238.00
2023-02-09T14:56:09.596Z,89238.00
2023-02-09T14:57:09.600Z,89231.00
2023-02-09T14:58:09.575Z,89229.00
2023-02-09T14:59:09.577Z,89227.00
2023-02-09T15:00:09.567Z,89231.00
2023-02-09T15:01:09.613Z,89229.00
2023-02-09T15:02:09.583Z,89229.00
2023-02-09T15:03:09.622Z,89231.00
2023-02-09T15:04:09.575Z,89229.00
2023-02-09T15:05:09.574Z,89231.00
2023-02-09T15:06:09.558Z,89238.00
2023-02-09T15:07:09.547Z,89242.00
2023-02-09T15:08:09.548Z,89240.00
2023-02-09T15:09:09.545Z,89238.00
2023-02-09T15:10:09.529Z,89244.00
2023-02-09T15:11:09.532Z,89250.00
2023-02-09T15:12:09.517Z,89252.00
2023-02-09T15:13:10.836Z,89254.00
2023-02-09T15:14:09.494Z,89254.00
2023-02-09T15:15:09.483Z,89256.00
2023-02-09T15:16:09.574Z,89254.00
2023-02-09T15:17:09.472Z,89256.00
2023-02-09T15:18:09.468Z,89258.00
2023-02-09T15:19:09.461Z,89254.00
2023-02-09T15:20:09.465Z,89254.00
2023-02-09T15:21:09.464Z,89258.00
2023-02-09T15:22:09.448Z,89262.00
2023-02-09T15:23:09.468Z,89264.00
2023-02-09T15:24:09.438Z,89264.00
2023-02-09T15:25:09.434Z,89262.00
2023-02-09T15:26:09.430Z,89262.00
2023-02-09T15:27:09.446Z,89264.00
2023-02-09T15:28:09.433Z,89268.00
2023-02-09T15:29:09.417Z,89270.00
2023-02-09T15:30:09.417Z,89270.00
2023-02-09T15:31:09.460Z,89268.00
2023-02-09T15:32:09.421Z,89268.00
2023-02-09T15:33:09.416Z,89274.00
2023-02-09T15:34:09.412Z,89276.00
2023-02-09T15:35:09.435Z,89276.00
2023-02-09T15:36:09.411Z,89278.00
2023-02-09T15:37:09.419Z,89276.00
2023-02-09T15:38:09.420Z,89276.00
2023-02-09T15:39:09.391Z,89282.00
2023-02-09T15:40:09.399Z,89280.00
2023-02-09T15:41:09.392Z,89278.00
2023-02-09T15:42:09.369Z,89280.00
2023-02-09T15:43:09.376Z,89280.00
2023-02-09T15:44:09.354Z,89284.00
2023-02-09T15:45:09.373Z,89288.00
2023-02-09T15:46:09.426Z,89289.00
2023-02-09T15:47:09.329Z,89289.00
2023-02-09T15:48:09.349Z,89291.00
2023-02-09T15:49:09.338Z,89289.00
2023-02-09T15:50:09.311Z,89293.00
2023-02-09T15:51:09.310Z,89295.00
2023-02-09T15:52:09.335Z,89293.00
2023-02-09T15:53:09.321Z,89295.00
2023-02-09T15:54:09.309Z,89295.00
2023-02-09T15:55:09.303Z,89297.00
2023-02-09T15:56:09.327Z,89303.00
2023-02-09T15:57:09.310Z,89301.00
2023-02-09T15:58:09.322Z,89301.00
2023-02-09T15:59:09.331Z,89303.00
2023-02-09T16:00:09.318Z,89307.00
2023-02-09T16:01:09.316Z,89309.00
2023-02-09T16:02:09.368Z,89313.00
2023-02-09T16:03:09.373Z,89313.00
2023-02-09T16:04:14.121Z,89313.00
2023-02-09T16:05:10.319Z,89313.00
2023-02-09T16:06:09.331Z,89313.00
2023-02-09T16:07:09.306Z,89319.00
2023-02-09T16:08:09.301Z,89321.00
2023-02-09T16:09:09.297Z,89323.00
2023-02-09T16:10:09.317Z,89319.00
2023-02-09T16:11:09.340Z,89323.00
2023-02-09T16:12:09.300Z,89327.00
2023-02-09T16:13:09.297Z,89331.00
2023-02-09T16:14:09.269Z,89331.00
2023-02-09T16:15:09.274Z,89327.00
2023-02-09T16:16:17.014Z,89333.00
2023-02-09T16:18:09.229Z,89329.00
2023-02-09T16:19:09.216Z,89333.00
2023-02-09T16:20:09.213Z,89335.00
2023-02-09T16:21:09.223Z,89337.00
2023-02-09T16:22:09.218Z,89340.00
2023-02-09T16:23:20.041Z,89342.00
2023-02-09T16:25:09.216Z,89344.00
2023-02-09T16:26:09.234Z,89344.00
2023-02-09T16:27:09.196Z,89350.00
2023-02-09T16:34:09.170Z,89370.00
2023-02-09T16:35:16.688Z,89372.00
2023-02-09T16:36:09.164Z,89372.00
2023-02-09T16:37:09.154Z,89374.00
2023-02-09T16:38:09.151Z,89378.00
2023-02-09T16:39:09.156Z,89378.00
2023-02-09T16:52:09.096Z,89401.00
2023-02-09T21:31:08.802Z,89585.00
2023-02-09T21:32:08.806Z,89587.00
2023-02-09T21:33:08.791Z,89591.00
2023-02-09T21:34:08.796Z,89595.00
2023-02-09T21:35:08.797Z,89593.00
2023-02-09T21:36:08.781Z,89597.00
2023-02-09T21:37:08.806Z,89599.00
2023-02-09T21:38:08.810Z,89603.00
2023-02-09T21:39:08.817Z,89601.00
2023-02-09T21:40:08.784Z,89601.00
2023-02-09T21:41:08.792Z,89601.00
2023-02-09T21:42:08.780Z,89601.00
2023-02-09T21:43:08.773Z,89601.00
2023-02-09T21:44:08.755Z,89601.00
2023-02-09T21:45:08.769Z,89601.00
2023-02-09T21:46:08.872Z,89595.00
2023-02-09T21:47:08.775Z,89595.00
2023-02-09T21:48:08.758Z,89587.00
2023-02-09T21:49:08.762Z,89589.00
2023-02-09T21:50:08.776Z,89597.00
2023-02-09T21:51:08.772Z,89597.00
2023-02-09T21:52:08.763Z,89601.00
2023-02-09T21:53:08.773Z,89609.00
2023-02-09T21:54:08.763Z,89609.00
2023-02-09T21:55:08.769Z,89609.00
2023-02-09T21:56:08.775Z,89613.00
2023-02-09T21:57:08.790Z,89611.00
2023-02-09T21:58:08.774Z,89607.00
2023-02-09T21:59:08.784Z,89609.00
2023-02-09T22:00:08.790Z,89607.00
2023-02-09T22:01:08.785Z,89611.00
2023-02-09T22:02:08.772Z,89611.00
2023-02-09T22:03:08.764Z,89611.00
2023-02-09T22:04:08.787Z,89609.00
2023-02-09T22:05:08.755Z,89605.00
2023-02-09T22:06:08.752Z,89603.00
2023-02-09T22:07:08.756Z,89605.00
2023-02-09T22:08:08.748Z,89603.00
2023-02-09T22:09:08.751Z,89603.00
2023-02-09T22:10:08.745Z,89603.00
2023-02-09T22:11:08.776Z,89603.00
2023-02-09T22:12:08.763Z,89601.00
2023-02-09T22:13:08.764Z,89605.00
2023-02-09T22:14:08.746Z,89607.00
2023-02-09T22:15:08.762Z,89605.00
2023-02-09T22:16:08.768Z,89605.00
2023-02-09T22:17:08.772Z,89603.00
2023-02-09T22:18:08.863Z,89601.00
2023-02-09T22:19:08.790Z,89603.00